• Join FlightAware (Why Join?)
  • Login
  • US Flag 
10:34AM EDT


 

Airport Tracker/Info


-or-


 

Live Flight TrackerFlight Track Log ✈ N273SK ✈ 25-Apr-2013 ✈ KBUF - KDTW

Flight Track Log - Related Links

Times and Time Zones

All times are in EDT time to prevent confusion due to time zone crossing. See the N273SK flight status page for this flight to view local times or setup timezone preferences in your user account.

Time Position Orientation Groundspeed Altitude Reporting Facility
EDT Latitude Longitude Course Direction KTS MPH feet Rate Location/Type
03:41PM 42.9167 -78.7667 216° Southwest 155 178 2,600  Level Buffalo TRACON
03:42PM 42.8833 -78.8167 228° Southwest 192 221 4,800 2,340 Climbing Buffalo TRACON
03:43PM 42.8519 -78.8669 230° Southwest 220 253 6,800 2,520 Climbing Cleveland Center
03:44PM 42.8376 -79.1749 236° Southwest  Level FlightAware Approximate
03:44PM 42.8467 -78.9492 270° West 220 253 9,600  Level Cleveland Center
03:45PM 42.8202 -79.2895 246° West  Level FlightAware Approximate
03:45PM 42.8294 -79.0508 270° West  Level Estimated
03:46PM 42.8059 -79.4077 262° West  Level FlightAware Approximate
03:46PM 42.8556 -79.1389 274° West 247 284 13,000  Level Cleveland Center
03:47PM 42.8422 -79.2467 260° West 273 314 14,000 480 Climbing Cleveland Center
03:48PM 42.8289 -79.3631 261° West 300 345 14,000  Level Cleveland Center
03:49PM 42.8072 -79.4881 257° West 320 368 14,000  Level Cleveland Center
03:50PM 42.7897 -79.6128 259° West 335 386 14,000 300 Level Cleveland Center
03:51PM 42.7697 -79.7347 257° West 340 391 14,700 900 Climbing Cleveland Center
03:52PM 42.7539 -79.8622 260° West 340 391 15,900 1,140 Climbing Cleveland Center
03:53PM 42.7464 -79.9811 265° West 335 386 17,000 1,020 Climbing Cleveland Center
03:54PM 42.6883 -80.0494 221° Southwest 270 311 18,000 1,080 Climbing Cleveland Center
03:55PM 42.6031 -80.0783 194° South 277 319 19,200 960 Climbing Cleveland Center
03:56PM 42.5489 -80.1406 220° Southwest 261 300 20,000 360 Climbing Cleveland Center
03:57PM 42.5764 -80.2644 287° West 241 277 20,000  Level Cleveland Center
03:58PM 42.6017 -80.3858 286° West 295 339 20,000  Level Cleveland Center
03:59PM 42.6289 -80.5125 286° West 335 386 20,000  Level Cleveland Center
04:00PM 42.6539 -80.6397 285° West 345 397 20,000  Level Cleveland Center
04:01PM 42.6811 -80.7667 286° West 353 406 20,000  Level Cleveland Center
04:02PM 42.7017 -80.8911 283° West 353 406 20,000  Level Cleveland Center
04:03PM 42.6906 -81.0239 264° West 347 399 20,000  Level Cleveland Center
04:04PM 42.6756 -81.1481 261° West 347 399 20,000  Level Cleveland Center
04:05PM 42.6622 -81.2806 262° West 352 405 20,000  Level Cleveland Center
04:06PM 42.6469 -81.3961 260° West 352 405 20,000  Level Cleveland Center
04:07PM 42.6314 -81.5228 261° West 352 405 20,000 -240 Level Cleveland Center
04:08PM 42.6178 -81.6553 262° West 352 405 19,600 -840 Descending Cleveland Center
04:09PM 42.6019 -81.7764 260° West 345 397 18,400 -1,200 Descending Cleveland Center
04:10PM 42.5861 -81.9000 260° West 345 397 17,200 -1,500 Descending Cleveland Center
04:11PM 42.5722 -82.0211 261° West 333 383 15,500 -1,680 Descending Cleveland Center
04:12PM 42.5581 -82.1419 261° West 333 383 13,900 -1,500 Descending Cleveland Center
04:13PM 42.5439 -82.2600 261° West 333 383 12,600 -1,140 Descending Cleveland Center
04:14PM 42.5319 -82.3611 261° West 314 361 12,000 -600 Descending Cleveland Center
04:14PM 42.5297 -82.3750 258° West 333 383 12,000  Level Cleveland Center
04:14PM 42.5222 -82.4481 262° West 313 360 12,000  Level Cleveland Center
04:15PM 42.5131 -82.4931 255° West 328 377 12,000  Level Cleveland Center
04:16PM 42.4994 -82.5686 256° West 308 354 12,000 -120 Level Cleveland Center
04:16PM 42.4883 -82.6019 246° West 315 362 11,900 -900 Descending Cleveland Center
04:17PM 42.4664 -82.6689 246° West 248 285 11,100 -1,320 Descending Cleveland Center
04:17PM 42.4578 -82.6856 235° Southwest 286 329 10,600 -2,100 Descending Cleveland Center
04:18PM 42.4400 -82.7439 248° West 244 281 9,200 -2,040 Descending Cleveland Center
04:18PM 42.4292 -82.7661 237° Southwest 260 299 8,600 -1,800 Descending Cleveland Center
04:19PM 42.4092 -82.8300 247° West 237 273 7,200 -1,620 Descending Cleveland Center
04:19PM 42.4003 -82.8467 234° Southwest 246 283 7,000 -240 Descending Cleveland Center
04:20PM 42.4033 -82.9114 274° West 229 264 7,000  Level Cleveland Center
04:20PM 42.4072 -82.9256 290° West 216 249 7,000 -900 Level Cleveland Center
04:21PM 42.4436 -82.9775 314° West 225 259 6,100 -1,020 Descending Cleveland Center
04:21PM 42.4497 -82.9864 313° West 203 234 6,000 -120 Descending Cleveland Center
04:22PM 42.4947 -83.0219 330° Northwest 213 245 6,000  Level Cleveland Center
04:22PM 42.4986 -83.0333 295° West 198 228 6,000  Level Cleveland Center
04:23PM 42.5097 -83.0986 283° West 174 200 6,000  Level Cleveland Center
04:23PM 42.5097 -83.1042 270° West 198 228 6,000  Level Cleveland Center
04:24PM 42.4775 -83.1450 223° Southwest 177 204 6,000 -240 Level Cleveland Center
04:25PM 42.4308 -83.1797 209° Southwest 186 214 5,600 -780 Descending Cleveland Center
04:26PM 42.3800 -83.2169 208° Southwest 185 213 4,400 -1,080 Descending Cleveland Center
04:27PM 42.3356 -83.2517 210° Southwest 181 208 3,300 -1,080 Descending Cleveland Center